This is the latest recevied weather packets stored in our database for station/object SV4JYD-14. If no packets are shown the sender has not sent any weather packets the latest 10 day(s).
| Time | Temp. | Humidity | Pressure | Rain* | Wind** | Luminosity | Snow |
|---|---|---|---|---|---|---|---|
| 1787671186 | 33.33° C | 36% | 1011 hPa | 0 mm | - | - | - |
| 1787670285 | 33.89° C | 36% | 1011 hPa | 0 mm | - | - | - |
| 1787669385 | 33.89° C | 36% | 1011 hPa | 0 mm | - | - | - |
| 1787667420 | 33.89° C | 37% | 1012 hPa | 0 mm | - | - | - |
| 1787666519 | 33.89° C | 37% | 1011 hPa | 0 mm | - | - | - |
| 1787665619 | 33.89° C | 37% | 1011 hPa | 0 mm | - | - | - |
| 1787664719 | 33.33° C | 39% | 1011 hPa | 0 mm | - | - | - |
| 1787663818 | 32.22° C | 43% | 1012 hPa | 0 mm | - | - | - |
| 1787662913 | 31.67° C | 48% | 1011 hPa | 0 mm | - | - | - |
| 1787662013 | 31.67° C | 48% | 1011 hPa | 0 mm | - | - | - |
| 1787661112 | 33.89° C | 40% | 1011 hPa | 0 mm | - | - | - |
| 1787660212 | 31.11° C | 50% | 1012 hPa | 0 mm | - | - | - |
| 1787659312 | 33.89° C | 42% | 1012 hPa | 0 mm | - | - | - |
| 1787658412 | 33.33° C | 43% | 1012 hPa | 0 mm | - | - | - |
| 1787657511 | 32.78° C | 44% | 1012 hPa | 0 mm | - | - | - |
| 1787656611 | 32.78° C | 43% | 1013 hPa | 0 mm | - | - | - |
| 1787655711 | 32.78° C | 42% | 1012 hPa | 0 mm | - | - | - |
| 1787654810 | 32.78° C | 42% | 1012 hPa | 0 mm | - | - | - |
| 1787653910 | 32.78° C | 41% | 1012 hPa | 0 mm | - | - | - |
| 1787653010 | 32.78° C | 41% | 1013 hPa | 0 mm | - | - | - |
| 1787652110 | 32.22° C | 40% | 1013 hPa | 0 mm | - | - | - |
| 1787651209 | 32.22° C | 40% | 1013 hPa | 0 mm | - | - | - |
| 1787650309 | 31.67° C | 43% | 1013 hPa | 0 mm | - | - | - |
| 1787649408 | 31.67° C | 45% | 1013 hPa | 0 mm | - | - | - |
| 1787648508 | 31.11° C | 46% | 1013 hPa | 0 mm | - | - | - |
* Rain latest hour (hover to see other rain measurements)
** Current wind speed in m/s (hover to see current wind gust speed)